Time;durP1;ratioP1;P1;durP2;ratioP2;P2;SDS_P1;SDS_P2;PMS_P1;PMS_P2;Temp;Humidity;BMP_temperature;BMP_pressure;BME280_temperature;BME280_humidity;BME280_pressure;Samples;Min_cycle;Max_cycle;Signal;HPM_P1;HPM_P2
2023/03/06 00:00:26;;;;;;;0.50;0.50;;;2.30;99.90;;;;;;6189907;23;20334;-72
2023/03/06 00:02:52;;;;;;;0.60;0.60;;;2.40;99.90;;;;;;6216701;23;20013;-72
2023/03/06 00:05:18;;;;;;;0.60;0.60;;;2.40;99.90;;;;;;6164875;23;20009;-72
2023/03/06 00:07:44;;;;;;;0.57;0.57;;;2.50;99.90;;;;;;6216956;23;20013;-72
2023/03/06 00:10:19;;;;;;;0.55;0.55;;;2.50;99.90;;;;;;6216814;23;20023;-72
2023/03/06 00:12:45;;;;;;;0.50;0.50;;;2.30;99.90;;;;;;6189651;23;20020;-72
2023/03/06 00:15:12;;;;;;;0.70;0.70;;;2.30;99.90;;;;;;6216616;23;20071;-72
2023/03/06 00:17:38;;;;;;;0.60;0.60;;;2.30;99.90;;;;;;6216640;23;20013;-72
2023/03/06 00:20:05;;;;;;;0.50;0.50;;;2.50;99.90;;;;;;6216775;23;20088;-73
2023/03/06 00:22:31;;;;;;;0.60;0.60;;;2.50;99.90;;;;;;6190081;23;20004;-72
2023/03/06 00:24:56;;;;;;;0.60;0.60;;;2.40;99.90;;;;;;6189508;23;20043;-72
2023/03/06 00:27:25;;;;;;;0.60;0.60;;;2.50;99.90;;;;;;6216430;23;20090;-72
2023/03/06 00:30:00;;;;;;;0.65;0.65;;;2.50;99.90;;;;;;6189441;23;20013;-72
2023/03/06 00:32:27;;;;;;;0.50;0.50;;;2.40;99.90;;;;;;6189450;23;20015;-72
2023/03/06 00:34:54;;;;;;;0.65;0.65;;;2.40;99.90;;;;;;6216475;23;20012;-72
2023/03/06 00:37:21;;;;;;;0.70;0.70;;;2.40;99.90;;;;;;6215889;23;20013;-72
2023/03/06 00:39:48;;;;;;;0.60;0.60;;;2.30;99.90;;;;;;6189304;23;20016;-72
2023/03/06 00:42:15;;;;;;;0.55;0.55;;;2.30;99.90;;;;;;6215813;23;20025;-72
2023/03/06 00:44:41;;;;;;;0.50;0.50;;;2.30;99.90;;;;;;6189720;23;20028;-72
2023/03/06 00:47:07;;;;;;;0.50;0.50;;;2.30;99.90;;;;;;6216155;23;20020;-72
2023/03/06 00:49:33;;;;;;;0.50;0.50;;;2.30;99.90;;;;;;6189772;23;20013;-72
2023/03/06 00:51:59;;;;;;;0.60;0.60;;;2.40;99.90;;;;;;6189413;23;20091;-72
2023/03/06 00:54:24;;;;;;;0.60;0.60;;;2.40;99.90;;;;;;6216264;23;20374;-72
2023/03/06 00:56:50;;;;;;;0.57;0.57;;;2.30;99.90;;;;;;6189306;23;20023;-72
2023/03/06 00:59:15;;;;;;;0.50;0.50;;;2.40;99.90;;;;;;6189213;23;20347;-72
2023/03/06 01:01:41;;;;;;;0.50;0.50;;;2.50;99.90;;;;;;6216195;23;20032;-72
2023/03/06 01:04:07;;;;;;;0.50;0.50;;;2.40;99.90;;;;;;6216194;23;20039;-72
2023/03/06 01:06:33;;;;;;;0.60;0.60;;;2.50;99.90;;;;;;6216224;23;20020;-72
2023/03/06 01:08:58;;;;;;;0.60;0.60;;;2.50;99.90;;;;;;6189270;23;20016;-72
2023/03/06 01:11:24;;;;;;;0.60;0.60;;;2.30;99.90;;;;;;6189676;23;20433;-72
2023/03/06 01:13:50;;;;;;;0.55;0.55;;;2.50;99.90;;;;;;6217893;23;20013;-72
2023/03/06 01:16:17;;;;;;;0.50;0.50;;;2.50;99.90;;;;;;6218125;23;20051;-72
2023/03/06 01:18:44;;;;;;;0.60;0.60;;;2.50;99.90;;;;;;6217803;23;20084;-72
2023/03/06 01:21:10;;;;;;;0.50;0.50;;;2.40;99.90;;;;;;6191399;23;20013;-72
2023/03/06 01:23:35;;;;;;;0.50;0.50;;;2.60;99.90;;;;;;6218100;23;20387;-73
2023/03/06 01:26:02;;;;;;;0.50;0.50;;;2.40;99.90;;;;;;6191265;23;20051;-72
2023/03/06 01:28:28;;;;;;;0.52;0.52;;;2.40;99.90;;;;;;6218147;23;20315;-73
2023/03/06 01:30:54;;;;;;;0.50;0.50;;;2.40;99.90;;;;;;6191152;23;20016;-72
2023/03/06 01:33:19;;;;;;;0.57;0.57;;;2.60;99.90;;;;;;6218046;23;20016;-72
2023/03/06 01:35:45;;;;;;;0.60;0.60;;;2.60;99.90;;;;;;6217693;23;20063;-72
2023/03/06 01:38:11;;;;;;;0.70;0.70;;;2.60;99.90;;;;;;6191091;23;20017;-72
2023/03/06 01:40:37;;;;;;;0.50;0.50;;;2.70;99.90;;;;;;6190794;23;20465;-72
2023/03/06 01:43:25;;;;;;;0.60;0.60;;;2.60;99.90;;;;;;6166242;23;20464;-72
2023/03/06 01:45:51;;;;;;;0.50;0.50;;;2.70;99.90;;;;;;6218018;23;20044;-72
2023/03/06 01:48:22;;;;;;;0.57;0.57;;;2.70;99.90;;;;;;6217941;23;20012;-72
2023/03/06 01:50:49;;;;;;;0.57;0.57;;;2.60;99.90;;;;;;6191198;23;20016;-72
2023/03/06 01:53:16;;;;;;;0.40;0.40;;;2.60;99.90;;;;;;6217790;23;20098;-72
2023/03/06 01:55:41;;;;;;;0.50;0.50;;;2.70;99.90;;;;;;6217369;23;20015;-72
2023/03/06 01:58:14;;;;;;;0.50;0.50;;;2.50;99.90;;;;;;6217868;23;20009;-72
2023/03/06 02:00:40;;;;;;;0.50;0.50;;;2.50;99.90;;;;;;6217834;23;20333;-72
2023/03/06 02:03:11;;;;;;;0.50;0.50;;;2.70;99.90;;;;;;6217721;23;20069;-72
2023/03/06 02:05:38;;;;;;;0.45;0.45;;;2.60;99.90;;;;;;6217707;23;20396;-72
2023/03/06 02:08:05;;;;;;;0.60;0.60;;;2.70;99.90;;;;;;6217728;23;20020;-72
2023/03/06 02:10:31;;;;;;;0.50;0.50;;;2.60;99.90;;;;;;6190751;23;20020;-72
2023/03/06 02:12:57;;;;;;;0.85;0.75;;;2.60;99.90;;;;;;6190768;23;20016;-72
2023/03/06 02:15:26;;;;;;;0.65;0.65;;;2.50;99.90;;;;;;6191060;23;20026;-72
2023/03/06 02:17:51;;;;;;;0.60;0.60;;;2.60;99.90;;;;;;6217634;23;20112;-72
2023/03/06 02:20:42;;;;;;;0.55;0.55;;;2.50;99.90;;;;;;6165945;23;20054;-73
2023/03/06 02:23:20;;;;;;;0.60;0.60;;;2.70;99.90;;;;;;6217702;23;20008;-73
2023/03/06 02:25:51;;;;;;;0.50;0.50;;;2.60;99.90;;;;;;6217322;23;20021;-73
2023/03/06 02:28:20;;;;;;;0.50;0.50;;;2.50;99.90;;;;;;6217459;23;20009;-73
2023/03/06 02:30:48;;;;;;;0.50;0.50;;;2.50;99.90;;;;;;6217531;23;20153;-73
2023/03/06 02:33:16;;;;;;;0.50;0.50;;;2.60;99.90;;;;;;6190607;23;20047;-72
2023/03/06 02:35:48;;;;;;;0.40;0.40;;;2.70;99.90;;;;;;6217396;23;20036;-72
2023/03/06 02:38:17;;;;;;;0.60;0.60;;;2.60;99.90;;;;;;6166181;23;20083;-73
2023/03/06 02:40:45;;;;;;;0.60;0.60;;;2.50;99.90;;;;;;6217111;23;20016;-72
2023/03/06 02:43:13;;;;;;;0.50;0.50;;;2.60;99.90;;;;;;6217355;23;20082;-72
2023/03/06 02:45:46;;;;;;;0.50;0.50;;;2.50;99.90;;;;;;6217352;23;20020;-72
2023/03/06 02:48:13;;;;;;;0.60;0.60;;;2.60;99.90;;;;;;6190288;23;20086;-72
2023/03/06 02:50:40;;;;;;;0.52;0.52;;;2.70;99.90;;;;;;6190270;23;20008;-72
2023/03/06 02:53:06;;;;;;;0.68;0.68;;;2.40;99.90;;;;;;6190790;23;20008;-72
2023/03/06 02:55:33;;;;;;;0.60;0.60;;;2.60;99.90;;;;;;6217244;23;20012;-72
2023/03/06 02:57:58;;;;;;;0.65;0.65;;;2.70;99.90;;;;;;6217171;23;20020;-72
2023/03/06 03:00:24;;;;;;;0.50;0.50;;;2.50;99.90;;;;;;6190276;23;20013;-72
2023/03/06 03:02:51;;;;;;;0.63;0.63;;;2.50;99.90;;;;;;6216770;23;20013;-72
2023/03/06 03:05:17;;;;;;;0.60;0.60;;;2.50;99.90;;;;;;6217077;23;20088;-72
2023/03/06 03:07:42;;;;;;;0.60;0.60;;;2.50;99.90;;;;;;6217135;23;20052;-72
2023/03/06 03:10:09;;;;;;;0.50;0.50;;;2.40;99.90;;;;;;6217020;23;20017;-72
2023/03/06 03:12:35;;;;;;;0.50;0.50;;;2.40;99.90;;;;;;6216570;23;20059;-72
2023/03/06 03:15:00;;;;;;;0.60;0.60;;;2.60;99.90;;;;;;6190124;23;20013;-72
2023/03/06 03:17:26;;;;;;;0.50;0.50;;;2.70;99.90;;;;;;6216532;23;20380;-72
2023/03/06 03:19:52;;;;;;;0.60;0.60;;;2.60;99.90;;;;;;6216727;23;20004;-72
2023/03/06 03:22:18;;;;;;;0.50;0.50;;;2.50;99.90;;;;;;6217287;23;20013;-72
2023/03/06 03:24:44;;;;;;;0.50;0.50;;;2.60;99.90;;;;;;6216893;23;20445;-72
2023/03/06 03:27:10;;;;;;;0.40;0.40;;;2.40;99.90;;;;;;6216961;23;20009;-72
2023/03/06 03:29:35;;;;;;;0.40;0.40;;;2.50;99.90;;;;;;6218014;23;20024;-72
2023/03/06 03:32:01;;;;;;;0.40;0.40;;;2.60;99.90;;;;;;6190555;23;20012;-73
2023/03/06 03:34:27;;;;;;;0.35;0.35;;;2.60;99.90;;;;;;6165317;23;20342;-72
2023/03/06 03:36:53;;;;;;;0.50;0.50;;;2.30;99.90;;;;;;6216523;23;20039;-72
2023/03/06 03:39:19;;;;;;;0.40;0.40;;;2.50;99.90;;;;;;6217012;23;20008;-72
2023/03/06 03:41:45;;;;;;;0.40;0.40;;;2.30;99.90;;;;;;6190001;23;20021;-72
2023/03/06 03:44:11;;;;;;;0.38;0.38;;;2.30;99.90;;;;;;6217018;23;20005;-72
2023/03/06 03:46:37;;;;;;;0.43;0.43;;;2.40;99.90;;;;;;6216598;23;20017;-72
2023/03/06 03:49:03;;;;;;;0.50;0.50;;;2.30;99.90;;;;;;6216495;23;20020;-72
2023/03/06 03:51:28;;;;;;;0.40;0.40;;;2.40;99.90;;;;;;6189980;23;20013;-72
2023/03/06 03:53:55;;;;;;;0.50;0.50;;;2.40;99.90;;;;;;6216550;23;20011;-72
2023/03/06 03:56:22;;;;;;;0.40;0.40;;;2.20;99.90;;;;;;6189657;23;20024;-72
2023/03/06 03:58:47;;;;;;;0.50;0.50;;;2.20;99.90;;;;;;6216341;23;20047;-72
2023/03/06 04:01:13;;;;;;;0.50;0.50;;;2.40;99.90;;;;;;6216206;23;20100;-72
2023/03/06 04:03:38;;;;;;;0.43;0.43;;;2.20;99.90;;;;;;6217151;23;20055;-72
2023/03/06 04:06:04;;;;;;;0.45;0.45;;;2.30;99.90;;;;;;6164808;23;20020;-72
2023/03/06 04:08:30;;;;;;;0.40;0.40;;;2.30;99.90;;;;;;6216557;23;20449;-72
2023/03/06 04:10:56;;;;;;;0.50;0.50;;;2.20;99.90;;;;;;6216534;23;20445;-72
2023/03/06 04:13:21;;;;;;;0.32;0.32;;;2.20;99.90;;;;;;6189449;23;20016;-72
2023/03/06 04:15:48;;;;;;;0.40;0.40;;;2.20;99.90;;;;;;6189871;23;20038;-72
2023/03/06 04:18:24;;;;;;;0.40;0.40;;;2.30;99.90;;;;;;6216471;23;20016;-72
2023/03/06 04:20:50;;;;;;;0.50;0.50;;;2.30;99.90;;;;;;6216144;23;20437;-72
2023/03/06 04:23:17;;;;;;;0.50;0.50;;;2.10;99.90;;;;;;6216569;23;20465;-72
2023/03/06 04:25:43;;;;;;;0.40;0.40;;;2.10;99.90;;;;;;6189420;23;20091;-72
2023/03/06 04:28:09;;;;;;;0.50;0.50;;;2.30;99.90;;;;;;6216462;23;20046;-72
2023/03/06 04:30:35;;;;;;;0.40;0.40;;;2.10;99.90;;;;;;6216348;23;20334;-72
2023/03/06 04:33:01;;;;;;;0.40;0.40;;;2.20;99.90;;;;;;6189346;23;20012;-72
2023/03/06 04:35:27;;;;;;;0.50;0.50;;;2.20;99.90;;;;;;6189461;23;20013;-72
2023/03/06 04:37:53;;;;;;;0.40;0.40;;;2.10;99.90;;;;;;6216297;23;20048;-72
2023/03/06 04:40:27;;;;;;;0.40;0.40;;;2.10;99.90;;;;;;6189149;23;20028;-72
2023/03/06 04:42:53;;;;;;;0.50;0.50;;;2.10;99.90;;;;;;6189380;23;20405;-72
2023/03/06 04:45:18;;;;;;;0.57;0.57;;;1.90;99.90;;;;;;6189724;23;20403;-72
2023/03/06 04:47:44;;;;;;;0.40;0.40;;;1.90;99.90;;;;;;6188646;23;20016;-73
2023/03/06 04:50:10;;;;;;;0.45;0.45;;;2.10;99.90;;;;;;6189210;23;20017;-73
2023/03/06 04:52:36;;;;;;;0.50;0.50;;;1.90;99.90;;;;;;6216305;23;20023;-72
2023/03/06 04:55:07;;;;;;;0.32;0.32;;;2.00;99.90;;;;;;6189203;23;20009;-72
2023/03/06 04:57:37;;;;;;;0.50;0.50;;;1.90;99.90;;;;;;6216752;23;20307;-72
2023/03/06 05:00:07;;;;;;;0.93;0.93;;;1.80;99.90;;;;;;6189596;23;20100;-72
2023/03/06 05:02:33;;;;;;;0.43;0.43;;;1.90;99.90;;;;;;6189717;23;20017;-72
2023/03/06 05:04:59;;;;;;;0.50;0.50;;;1.90;99.90;;;;;;6216232;23;20020;-72
2023/03/06 05:07:25;;;;;;;0.43;0.43;;;1.90;99.90;;;;;;6189316;23;20016;-72
2023/03/06 05:09:50;;;;;;;0.50;0.50;;;1.80;99.90;;;;;;6189577;23;20044;-72
2023/03/06 05:12:16;;;;;;;0.50;0.50;;;1.70;99.90;;;;;;6189197;23;20016;-72
2023/03/06 05:14:42;;;;;;;0.40;0.40;;;1.60;99.90;;;;;;6164454;23;20024;-72
2023/03/06 05:17:08;;;;;;;0.38;0.38;;;1.70;99.90;;;;;;6189026;23;20020;-72
2023/03/06 05:19:34;;;;;;;0.50;0.50;;;1.80;99.90;;;;;;6189151;23;20040;-72
2023/03/06 05:21:59;;;;;;;0.50;0.50;;;1.70;99.90;;;;;;6189225;23;20092;-72
2023/03/06 05:24:25;;;;;;;0.47;0.47;;;1.80;99.90;;;;;;6189081;23;20341;-72
2023/03/06 05:26:50;;;;;;;0.50;0.50;;;1.70;99.90;;;;;;6189074;23;20016;-72
2023/03/06 05:29:16;;;;;;;0.30;0.30;;;1.80;99.90;;;;;;6215619;23;20047;-72
2023/03/06 05:31:42;;;;;;;0.45;0.45;;;1.70;99.90;;;;;;6215941;23;20009;-72
2023/03/06 05:34:12;;;;;;;0.50;0.50;;;1.50;99.90;;;;;;6164182;23;20013;-72
2023/03/06 05:36:38;;;;;;;0.50;0.50;;;1.60;99.90;;;;;;6216018;23;20013;-80
2023/03/06 05:39:05;;;;;;;0.50;0.50;;;1.50;99.90;;;;;;6215983;23;20008;-73
2023/03/06 05:41:31;;;;;;;0.50;0.50;;;1.40;99.90;;;;;;6215509;23;20020;-72
2023/03/06 05:43:57;;;;;;;0.50;0.50;;;1.30;99.90;;;;;;6215670;23;20008;-73
2023/03/06 05:46:23;;;;;;;0.40;0.40;;;1.30;99.90;;;;;;6216024;23;20016;-72
2023/03/06 05:48:51;;;;;;;0.45;0.45;;;1.40;99.90;;;;;;6216291;23;20108;-72
2023/03/06 05:51:17;;;;;;;0.50;0.50;;;1.40;99.90;;;;;;6189166;23;20452;-72
2023/03/06 05:53:43;;;;;;;0.40;0.40;;;1.20;99.90;;;;;;6189146;23;20100;-68
2023/03/06 05:56:09;;;;;;;0.65;0.60;;;1.40;99.90;;;;;;6215512;23;20044;-68
2023/03/06 05:58:35;;;;;;;0.45;0.45;;;1.30;99.90;;;;;;6216167;23;20329;-73
2023/03/06 06:01:11;;;;;;;0.40;0.40;;;1.20;99.90;;;;;;6217734;23;20008;-73
2023/03/06 06:03:38;;;;;;;0.50;0.50;;;1.30;99.90;;;;;;6190883;23;20039;-72
2023/03/06 06:06:05;;;;;;;0.60;0.60;;;1.30;99.90;;;;;;6217382;23;20062;-74
2023/03/06 06:08:31;;;;;;;0.40;0.40;;;1.20;99.90;;;;;;6166070;23;20451;-70
2023/03/06 06:10:56;;;;;;;0.50;0.50;;;1.30;99.90;;;;;;6217683;23;20079;-76
2023/03/06 06:13:22;;;;;;;0.60;0.60;;;1.40;99.90;;;;;;6190692;23;20016;-76
2023/03/06 06:15:48;;;;;;;0.40;0.40;;;1.20;99.90;;;;;;6190982;23;20154;-76
2023/03/06 06:18:14;;;;;;;0.50;0.50;;;1.10;99.90;;;;;;6217572;23;20100;-75
2023/03/06 06:20:40;;;;;;;0.40;0.40;;;1.00;99.90;;;;;;6217298;23;20016;-75
2023/03/06 06:23:05;;;;;;;0.45;0.45;;;1.00;99.90;;;;;;6191692;23;20361;-73
2023/03/06 06:25:32;;;;;;;0.40;0.40;;;1.20;99.90;;;;;;6217511;23;20330;-74
2023/03/06 06:27:57;;;;;;;0.40;0.40;;;1.20;99.90;;;;;;6217505;23;20019;-74
2023/03/06 06:30:23;;;;;;;0.50;0.50;;;1.30;99.90;;;;;;6190632;23;20016;-74
2023/03/06 06:32:49;;;;;;;0.40;0.40;;;1.40;99.90;;;;;;6217474;23;20020;-74
2023/03/06 06:35:15;;;;;;;0.40;0.40;;;1.40;99.90;;;;;;6190570;23;20038;-74
2023/03/06 06:37:40;;;;;;;0.50;0.50;;;1.50;99.90;;;;;;6190312;23;20069;-74
2023/03/06 06:40:07;;;;;;;0.50;0.50;;;1.40;99.90;;;;;;6190455;23;20047;-74
2023/03/06 06:42:35;;;;;;;0.90;0.90;;;1.40;99.90;;;;;;6190241;23;20127;-74
2023/03/06 06:45:02;;;;;;;0.70;0.70;;;1.30;99.90;;;;;;6190493;23;20024;-73
2023/03/06 06:47:27;;;;;;;0.50;0.50;;;1.20;99.90;;;;;;6217291;23;20012;-73
2023/03/06 06:49:54;;;;;;;0.40;0.40;;;1.20;99.90;;;;;;6217342;23;20005;-73
2023/03/06 06:52:21;;;;;;;1.17;1.05;;;1.00;99.90;;;;;;6190388;23;20131;-73
2023/03/06 06:54:47;;;;;;;0.63;0.63;;;1.10;99.90;;;;;;6217094;23;20012;-73
2023/03/06 06:57:13;;;;;;;0.55;0.55;;;1.00;99.90;;;;;;6190194;23;20346;-75
2023/03/06 06:59:39;;;;;;;0.50;0.50;;;0.80;99.90;;;;;;6217377;23;20009;-75
2023/03/06 07:02:04;;;;;;;0.73;0.57;;;0.80;99.90;;;;;;6217388;23;20004;-75
2023/03/06 07:04:30;;;;;;;0.50;0.50;;;0.70;99.90;;;;;;6217112;23;20008;-75
2023/03/06 07:06:56;;;;;;;1.05;0.98;;;0.80;99.90;;;;;;6217469;23;20023;-75
2023/03/06 07:09:22;;;;;;;0.60;0.60;;;0.70;99.90;;;;;;6217166;23;20012;-76
2023/03/06 07:11:48;;;;;;;0.60;0.60;;;0.70;99.90;;;;;;6217108;23;20012;-75
2023/03/06 07:14:14;;;;;;;0.50;0.50;;;0.90;99.90;;;;;;6190801;23;20016;-75
2023/03/06 07:16:39;;;;;;;0.50;0.50;;;0.70;99.90;;;;;;6190226;23;20012;-74
2023/03/06 07:19:06;;;;;;;0.50;0.50;;;1.00;99.90;;;;;;6164987;23;20074;-75
2023/03/06 07:21:32;;;;;;;2.08;1.67;;;1.00;99.90;;;;;;6190199;23;20063;-75
2023/03/06 07:23:57;;;;;;;0.98;0.60;;;0.80;99.90;;;;;;6216969;23;20429;-75
2023/03/06 07:26:24;;;;;;;0.60;0.60;;;0.70;99.90;;;;;;6216942;23;20457;-75
2023/03/06 07:28:52;;;;;;;0.50;0.50;;;0.80;99.90;;;;;;6190514;23;20008;-75
2023/03/06 07:31:20;;;;;;;0.57;0.57;;;0.80;99.90;;;;;;6189975;23;20071;-75
2023/03/06 07:33:49;;;;;;;0.50;0.50;;;0.90;99.90;;;;;;6165105;23;20429;-75
2023/03/06 07:36:15;;;;;;;0.60;0.60;;;0.70;99.90;;;;;;6216804;23;20013;-75
2023/03/06 07:38:41;;;;;;;0.50;0.50;;;0.90;99.90;;;;;;6190012;23;20019;-74
2023/03/06 07:41:12;;;;;;;0.40;0.40;;;0.90;99.90;;;;;;6189668;23;20024;-75
2023/03/06 07:43:41;;;;;;;0.50;0.50;;;0.80;99.90;;;;;;6190275;23;20460;-76
2023/03/06 07:46:07;;;;;;;0.50;0.50;;;0.80;99.90;;;;;;6216323;23;20019;-75
2023/03/06 07:48:34;;;;;;;0.50;0.50;;;0.80;99.90;;;;;;6216746;23;20052;-69
2023/03/06 07:51:02;;;;;;;0.50;0.50;;;0.80;99.90;;;;;;6216731;23;20008;-69
2023/03/06 07:53:28;;;;;;;0.50;0.50;;;0.90;99.90;;;;;;6165095;23;20372;-69
2023/03/06 07:55:54;;;;;;;0.55;0.55;;;0.90;99.90;;;;;;6189658;23;20012;-68
2023/03/06 07:58:21;;;;;;;0.60;0.60;;;1.00;99.90;;;;;;6189722;23;20465;-68
2023/03/06 08:00:46;;;;;;;0.60;0.60;;;1.10;99.90;;;;;;6190230;23;20013;-68
2023/03/06 08:03:13;;;;;;;0.50;0.50;;;1.00;99.90;;;;;;6189607;23;20009;-68
2023/03/06 08:05:39;;;;;;;0.50;0.50;;;1.00;99.90;;;;;;6216552;23;20009;-69
2023/03/06 08:08:05;;;;;;;0.57;0.57;;;1.10;99.90;;;;;;6216724;23;20096;-68
2023/03/06 08:10:31;;;;;;;0.50;0.50;;;1.30;99.90;;;;;;6189476;23;20013;-68
2023/03/06 08:12:56;;;;;;;0.50;0.50;;;1.50;99.90;;;;;;6189522;23;20092;-68
2023/03/06 08:15:22;;;;;;;0.60;0.60;;;1.50;99.90;;;;;;6164865;23;20021;-68
2023/03/06 08:17:49;;;;;;;0.50;0.50;;;1.60;99.90;;;;;;6189552;23;20023;-69
2023/03/06 08:20:16;;;;;;;0.60;0.60;;;1.70;99.90;;;;;;6216097;23;20088;-68
2023/03/06 08:22:42;;;;;;;0.70;0.70;;;1.40;99.90;;;;;;6216446;23;20062;-69
2023/03/06 08:25:08;;;;;;;0.50;0.50;;;1.70;99.90;;;;;;6216462;23;20005;-69
2023/03/06 08:27:34;;;;;;;0.60;0.60;;;1.60;99.90;;;;;;6189882;23;20048;-68
2023/03/06 08:30:00;;;;;;;0.50;0.50;;;1.60;99.90;;;;;;6189433;23;20497;-68
2023/03/06 08:32:26;;;;;;;0.50;0.50;;;1.70;99.90;;;;;;6189388;23;20059;-68
2023/03/06 08:34:52;;;;;;;0.52;0.52;;;2.00;99.90;;;;;;6189325;23;20042;-68
2023/03/06 08:37:17;;;;;;;0.45;0.45;;;2.10;99.90;;;;;;6189409;23;20497;-69
2023/03/06 08:39:43;;;;;;;0.60;0.60;;;2.00;99.90;;;;;;6216374;23;20027;-69
2023/03/06 08:42:09;;;;;;;0.50;0.50;;;2.30;99.90;;;;;;6189117;23;20072;-68
2023/03/06 08:44:35;;;;;;;0.57;0.57;;;2.10;99.90;;;;;;6216255;23;20016;-69
2023/03/06 08:47:02;;;;;;;0.50;0.50;;;2.30;99.90;;;;;;6215892;23;20017;-69
2023/03/06 08:49:28;;;;;;;0.47;0.47;;;2.70;99.90;;;;;;6216275;23;20094;-68
2023/03/06 08:51:54;;;;;;;0.50;0.50;;;2.70;99.90;;;;;;6189399;23;20048;-70
2023/03/06 08:54:19;;;;;;;0.60;0.60;;;2.40;99.90;;;;;;6216539;23;20015;-69
2023/03/06 08:56:45;;;;;;;0.50;0.50;;;2.60;99.90;;;;;;6216165;23;20047;-69
2023/03/06 08:59:12;;;;;;;0.50;0.50;;;2.70;99.90;;;;;;6216166;23;20012;-69
2023/03/06 09:01:40;;;;;;;0.50;0.50;;;3.10;99.90;;;;;;6164588;23;20043;-69
2023/03/06 09:04:08;;;;;;;0.50;0.50;;;3.00;99.90;;;;;;6189408;23;20337;-69
2023/03/06 09:06:37;;;;;;;0.50;0.50;;;3.20;99.90;;;;;;6189308;23;20523;-69
2023/03/06 09:09:05;;;;;;;0.50;0.50;;;3.20;99.90;;;;;;6216368;23;20099;-69
2023/03/06 09:11:31;;;;;;;0.50;0.50;;;3.50;99.90;;;;;;6215915;23;20240;-69
2023/03/06 09:13:57;;;;;;;0.60;0.60;;;3.30;99.90;;;;;;6215806;23;20337;-69
2023/03/06 09:16:24;;;;;;;0.50;0.50;;;3.60;99.90;;;;;;6215777;23;20012;-69
2023/03/06 09:18:51;;;;;;;0.60;0.60;;;3.60;99.90;;;;;;6189315;23;20179;-69
2023/03/06 09:21:18;;;;;;;0.50;0.50;;;3.60;99.90;;;;;;6216103;23;20016;-68
2023/03/06 09:23:44;;;;;;;0.60;0.60;;;3.70;99.90;;;;;;6216235;23;20009;-69
2023/03/06 09:26:11;;;;;;;0.60;0.60;;;4.00;99.90;;;;;;6189600;23;20012;-69
2023/03/06 09:28:37;;;;;;;0.60;0.60;;;3.90;99.90;;;;;;6189220;23;20009;-69
2023/03/06 09:31:21;;;;;;;0.40;0.40;;;4.00;99.90;;;;;;6216021;23;20016;-69
2023/03/06 09:33:47;;;;;;;0.50;0.50;;;4.00;99.90;;;;;;6216786;23;20013;-69
2023/03/06 09:36:19;;;;;;;0.50;0.50;;;4.00;99.90;;;;;;6190916;23;20027;-69
2023/03/06 09:38:46;;;;;;;0.55;0.55;;;4.00;99.90;;;;;;6191213;23;20441;-69
2023/03/06 09:41:30;;;;;;;0.40;0.40;;;4.10;99.90;;;;;;6190976;23;20087;-69
2023/03/06 09:44:05;;;;;;;0.40;0.40;;;4.30;99.90;;;;;;6217950;23;20088;-69
2023/03/06 09:46:42;;;;;;;0.50;0.50;;;4.40;99.90;;;;;;6191051;23;20024;-69
2023/03/06 09:49:31;;;;;;;0.40;0.40;;;4.50;99.90;;;;;;6218075;23;20075;-69
2023/03/06 09:52:03;;;;;;;0.40;0.40;;;4.30;99.90;;;;;;6072836;23;20018;-69
2023/03/06 09:54:46;;;;;;;0.40;0.40;;;4.30;99.90;;;;;;6072631;23;20344;-69
2023/03/06 09:57:26;;;;;;;0.50;0.50;;;4.40;99.90;;;;;;6048425;23;20097;-69
2023/03/06 09:59:55;;;;;;;0.50;0.50;;;4.20;99.90;;;;;;6096578;23;20112;-69
2023/03/06 10:02:40;;;;;;;0.60;0.60;;;4.30;99.90;;;;;;6072323;23;20035;-69
2023/03/06 10:05:12;;;;;;;0.50;0.50;;;4.30;99.90;;;;;;6072909;23;20010;-69
2023/03/06 10:07:42;;;;;;;0.60;0.60;;;4.30;99.90;;;;;;6096566;23;20124;-69
2023/03/06 10:10:18;;;;;;;0.40;0.40;;;4.20;99.90;;;;;;6096526;23;20376;-69
2023/03/06 10:12:52;;;;;;;0.40;0.40;;;4.30;99.90;;;;;;6096401;23;20022;-69
2023/03/06 10:15:25;;;;;;;0.50;0.50;;;4.20;99.90;;;;;;6096413;23;20014;-69
2023/03/06 10:17:51;;;;;;;0.52;0.52;;;4.20;99.90;;;;;;6096247;23;20341;-69
2023/03/06 10:20:21;;;;;;;0.40;0.40;;;4.10;99.90;;;;;;6072071;23;20014;-69
2023/03/06 10:23:20;;;;;;;0.40;0.40;;;4.20;99.90;;;;;;6072485;23;20109;-70
2023/03/06 10:25:59;;;;;;;0.60;0.60;;;4.20;99.90;;;;;;6072319;23;20403;-69
2023/03/06 10:28:34;;;;;;;0.52;0.52;;;4.30;99.90;;;;;;6105820;23;20016;-69
2023/03/06 10:31:26;;;;;;;0.47;0.47;;;4.40;99.90;;;;;;6190742;23;20342;-70
2023/03/06 10:33:57;;;;;;;0.40;0.40;;;4.50;99.90;;;;;;6185373;23;20329;-69
2023/03/06 10:36:26;;;;;;;0.40;0.40;;;4.60;99.90;;;;;;6190665;23;20389;-70
2023/03/06 10:38:53;;;;;;;0.50;0.50;;;4.70;99.90;;;;;;6217870;23;20004;-71
2023/03/06 10:41:34;;;;;;;0.50;0.50;;;4.80;99.90;;;;;;6190512;23;20407;-69
2023/03/06 10:44:00;;;;;;;0.50;0.50;;;4.80;99.90;;;;;;6190578;23;20035;-70
2023/03/06 10:46:29;;;;;;;0.50;0.50;;;5.00;99.90;;;;;;6190793;23;20020;-70
2023/03/06 10:49:00;;;;;;;0.60;0.60;;;5.10;99.90;;;;;;6190664;23;20020;-68
2023/03/06 10:51:27;;;;;;;0.40;0.40;;;5.20;99.90;;;;;;6190608;23;20319;-69
2023/03/06 10:54:19;;;;;;;0.50;0.50;;;5.30;99.90;;;;;;6217559;23;20095;-69
2023/03/06 10:56:46;;;;;;;0.45;0.45;;;5.40;99.90;;;;;;6190359;23;20027;-69
2023/03/06 10:59:15;;;;;;;0.47;0.47;;;5.40;99.90;;;;;;6217263;23;20015;-70
2023/03/06 11:01:49;;;;;;;0.40;0.40;;;5.50;99.90;;;;;;6216976;23;20017;-69
2023/03/06 11:04:27;;;;;;;0.40;0.40;;;5.60;99.90;;;;;;6190298;23;20012;-69
2023/03/06 11:07:15;;;;;;;0.40;0.40;;;5.60;99.90;;;;;;6217276;23;20016;-69
2023/03/06 11:09:46;;;;;;;0.40;0.40;;;5.70;99.90;;;;;;6190301;23;20073;-69
2023/03/06 11:12:18;;;;;;;0.45;0.45;;;5.70;99.90;;;;;;6217289;23;20017;-69
2023/03/06 11:14:43;;;;;;;0.40;0.40;;;5.60;99.90;;;;;;6217185;23;20027;-69
2023/03/06 11:17:30;;;;;;;0.40;0.40;;;5.70;99.90;;;;;;6217096;23;20017;-69
2023/03/06 11:20:38;;;;;;;0.50;0.50;;;5.80;99.90;;;;;;6190153;23;20433;-69
2023/03/06 11:23:18;;;;;;;0.50;0.50;;;5.90;99.90;;;;;;6190971;23;20008;-69
2023/03/06 11:26:01;;;;;;;0.40;0.40;;;6.00;99.90;;;;;;6217208;23;20082;-69
2023/03/06 11:28:50;;;;;;;0.30;0.30;;;6.10;99.90;;;;;;6217022;23;20011;-70
2023/03/06 11:31:19;;;;;;;0.30;0.30;;;6.40;99.90;;;;;;6216998;23;20012;-70
2023/03/06 11:33:51;;;;;;;0.40;0.40;;;6.20;99.90;;;;;;6165218;23;20009;-69
2023/03/06 11:36:54;;;;;;;0.32;0.32;;;6.20;99.90;;;;;;6165055;23;20092;-68
2023/03/06 11:39:28;;;;;;;0.40;0.40;;;6.00;99.90;;;;;;6217071;23;20017;-68
2023/03/06 11:42:17;;;;;;;0.40;0.40;;;6.10;99.90;;;;;;6189786;23;20017;-68
2023/03/06 11:45:08;;;;;;;0.40;0.40;;;6.10;99.90;;;;;;6216486;23;20465;-69
2023/03/06 11:47:45;;;;;;;0.40;0.40;;;6.10;99.90;;;;;;6189872;23;20016;-69
2023/03/06 11:50:34;;;;;;;0.40;0.40;;;6.20;99.90;;;;;;6190054;23;20012;-69
2023/03/06 11:53:04;;;;;;;0.40;0.40;;;6.40;99.90;;;;;;6189959;23;20020;-69
2023/03/06 11:56:08;;;;;;;0.30;0.30;;;6.60;99.20;;;;;;6190005;23;20012;-70
2023/03/06 11:58:57;;;;;;;0.30;0.30;;;6.70;97.50;;;;;;6164944;23;20021;-68
2023/03/06 12:01:28;;;;;;;0.40;0.40;;;6.70;97.50;;;;;;6216798;23;20023;-69
2023/03/06 12:03:59;;;;;;;0.47;0.47;;;6.80;99.90;;;;;;6189756;23;20342;-69
2023/03/06 12:06:35;;;;;;;0.38;0.38;;;6.80;99.70;;;;;;6216605;23;20088;-69
2023/03/06 12:09:07;;;;;;;0.40;0.40;;;6.70;97.80;;;;;;6189899;23;20012;-70
2023/03/06 12:11:52;;;;;;;0.40;0.40;;;6.60;99.00;;;;;;6216591;23;20020;-69
2023/03/06 12:14:46;;;;;;;0.40;0.40;;;6.50;99.90;;;;;;6216324;23;20048;-70
2023/03/06 12:17:27;;;;;;;0.40;0.40;;;6.30;99.90;;;;;;6216436;23;20012;-70
2023/03/06 12:19:52;;;;;;;0.40;0.40;;;6.30;99.90;;;;;;6216080;23;20016;-70
2023/03/06 12:22:21;;;;;;;0.40;0.40;;;6.10;99.90;;;;;;6189940;23;20063;-69
2023/03/06 12:25:17;;;;;;;0.30;0.30;;;6.10;99.90;;;;;;6164828;23;20441;-70
2023/03/06 12:28:04;;;;;;;0.40;0.40;;;6.20;99.90;;;;;;6216513;23;20023;-70
2023/03/06 12:30:39;;;;;;;0.40;0.40;;;6.30;99.90;;;;;;6216590;23;20341;-69
2023/03/06 12:33:08;;;;;;;0.40;0.40;;;6.40;99.90;;;;;;6189961;23;20079;-69
2023/03/06 12:35:54;;;;;;;0.50;0.50;;;6.60;99.90;;;;;;6216355;23;20019;-69
2023/03/06 12:38:51;;;;;;;0.47;0.47;;;6.80;99.90;;;;;;6189460;23;20456;-69
2023/03/06 12:41:20;;;;;;;0.50;0.50;;;6.80;99.90;;;;;;6216193;23;20017;-69
2023/03/06 12:43:51;;;;;;;0.40;0.40;;;6.80;99.90;;;;;;6216381;23;20020;-70
2023/03/06 12:46:21;;;;;;;0.40;0.40;;;6.60;99.90;;;;;;6216854;23;20023;-69
2023/03/06 12:48:58;;;;;;;0.40;0.40;;;6.70;99.90;;;;;;6189370;23;20442;-69
2023/03/06 12:51:24;;;;;;;0.38;0.38;;;6.50;99.90;;;;;;6216263;23;20095;-70
2023/03/06 12:53:50;;;;;;;0.40;0.40;;;6.50;99.90;;;;;;6189376;23;20047;-70
2023/03/06 12:56:17;;;;;;;0.45;0.45;;;6.30;99.90;;;;;;6164317;23;20020;-71
2023/03/06 12:58:48;;;;;;;0.45;0.45;;;6.20;99.90;;;;;;6189350;23;20028;-70
2023/03/06 13:01:18;;;;;;;;;;;6.20;99.90;;;;;;6216704;23;20020;-70
2023/03/06 13:04:15;;;;;;;0.30;0.30;;;6.20;99.90;;;;;;6216921;23;19912;-70
2023/03/06 13:06:57;;;;;;;0.38;0.38;;;6.20;99.90;;;;;;6215839;23;20016;-70
2023/03/06 13:09:43;;;;;;;0.40;0.40;;;6.10;99.90;;;;;;6217751;23;20062;-70